createdAt,value
2022-08-16T00:01:15.601Z,81.70
2022-08-16T00:03:42.300Z,81.80
2022-08-16T00:06:10.017Z,81.70
2022-08-16T00:08:37.863Z,81.80
2022-08-16T00:11:07.783Z,82.00
2022-08-16T00:13:42.495Z,82.00
2022-08-16T00:17:00.776Z,82.10
2022-08-16T00:18:58.937Z,82.10
2022-08-16T00:21:26.044Z,81.90
2022-08-16T00:23:56.176Z,81.90
2022-08-16T00:26:35.609Z,81.80
2022-08-16T00:29:12.054Z,81.80
2022-08-16T00:31:47.057Z,82.10
2022-08-16T00:34:44.300Z,82.20
2022-08-16T00:37:17.392Z,82.10
2022-08-16T00:39:47.254Z,82.10
2022-08-16T00:42:30.672Z,82.20
2022-08-16T00:45:16.635Z,82.00
2022-08-16T00:47:49.280Z,81.80
2022-08-16T00:50:20.510Z,81.60
2022-08-16T00:52:50.998Z,81.70
2022-08-16T00:55:21.939Z,81.80
2022-08-16T00:57:59.132Z,81.80
2022-08-16T01:00:29.861Z,81.90
2022-08-16T01:03:00.832Z,81.90
2022-08-16T01:05:29.120Z,82.00
2022-08-16T01:07:57.349Z,82.00
2022-08-16T01:10:31.495Z,81.90
2022-08-16T01:13:12.384Z,82.10
2022-08-16T01:15:46.826Z,82.20
2022-08-16T01:18:39.192Z,82.20
2022-08-16T01:21:39.856Z,82.20
2022-08-16T01:24:52.337Z,82.40
2022-08-16T01:27:34.857Z,82.40
2022-08-16T01:30:20.084Z,82.30
2022-08-16T01:33:14.729Z,82.20
2022-08-16T01:35:47.595Z,82.10
2022-08-16T01:38:40.539Z,82.30
2022-08-16T01:41:19.330Z,82.30
2022-08-16T01:43:53.578Z,82.40
2022-08-16T01:46:39.374Z,82.40
2022-08-16T01:49:23.645Z,82.20
2022-08-16T01:51:56.902Z,82.20
2022-08-16T01:54:37.490Z,82.00
2022-08-16T01:57:05.607Z,81.80
2022-08-16T01:59:34.165Z,81.90
2022-08-16T02:02:01.975Z,81.90
2022-08-16T02:04:49.648Z,81.90
2022-08-16T02:07:23.523Z,82.00
2022-08-16T02:09:58.710Z,82.00
2022-08-16T02:12:52.493Z,81.90
2022-08-16T02:15:27.118Z,82.10
2022-08-16T02:17:58.048Z,82.20
2022-08-16T02:20:27.880Z,82.10
2022-08-16T02:23:00.219Z,82.00
2022-08-16T02:25:52.562Z,82.00
2022-08-16T02:28:17.479Z,82.00
2022-08-16T02:30:50.808Z,81.80
2022-08-16T02:33:20.370Z,81.90
2022-08-16T02:35:55.178Z,82.00
2022-08-16T02:38:29.176Z,82.00
2022-08-16T02:41:00.757Z,81.90
2022-08-16T02:43:33.209Z,81.90
2022-08-16T02:46:07.569Z,81.80
2022-08-16T02:48:38.546Z,81.70
2022-08-16T02:51:11.456Z,81.70
2022-08-16T02:53:46.741Z,81.70
2022-08-16T02:56:16.034Z,81.70
2022-08-16T02:58:45.640Z,81.80
2022-08-16T03:01:24.068Z,82.00
2022-08-16T03:04:30.007Z,82.10
2022-08-16T03:06:43.102Z,82.10
2022-08-16T03:09:22.977Z,82.00
2022-08-16T03:11:53.647Z,82.00
2022-08-16T03:14:24.595Z,82.20
2022-08-16T03:16:59.764Z,82.20
2022-08-16T03:19:47.983Z,82.30
2022-08-16T03:22:28.078Z,82.20
2022-08-16T03:25:00.844Z,82.30
2022-08-16T03:27:31.321Z,82.30
2022-08-16T03:30:02.501Z,82.20
2022-08-16T03:32:47.413Z,82.40
2022-08-16T03:35:17.866Z,82.30
2022-08-16T03:38:02.753Z,82.30
2022-08-16T03:40:37.691Z,82.20
2022-08-16T03:43:19.637Z,82.20
2022-08-16T03:45:54.084Z,82.20
2022-08-16T03:48:36.977Z,82.20
2022-08-16T03:51:23.610Z,82.30
2022-08-16T03:54:01.589Z,82.20
2022-08-16T03:56:31.265Z,82.20
2022-08-16T03:58:59.552Z,82.10
2022-08-16T04:01:32.045Z,82.00
2022-08-16T04:04:00.070Z,82.00
2022-08-16T04:06:27.785Z,81.90
2022-08-16T04:08:55.185Z,82.00
2022-08-16T04:11:24.571Z,82.00
2022-08-16T04:14:01.747Z,81.90
2022-08-16T04:16:41.972Z,81.90
2022-08-16T04:19:31.539Z,81.90
2022-08-16T04:22:00.759Z,81.80
2022-08-16T04:24:33.166Z,81.70
2022-08-16T04:27:00.192Z,81.70
2022-08-16T04:29:27.834Z,81.80
2022-08-16T04:32:11.343Z,81.80
2022-08-16T04:34:42.478Z,81.90
2022-08-16T04:37:11.580Z,82.00
2022-08-16T04:39:47.354Z,81.90
2022-08-16T04:42:26.426Z,81.80
2022-08-16T04:44:58.359Z,81.90
2022-08-16T04:47:35.595Z,81.90
2022-08-16T04:50:10.460Z,82.00
2022-08-16T04:52:38.101Z,82.10
2022-08-16T04:55:15.342Z,82.20
2022-08-16T04:57:44.598Z,82.30
2022-08-16T05:00:32.308Z,82.30
2022-08-16T05:03:14.252Z,82.40
2022-08-16T05:05:59.519Z,82.40
2022-08-16T05:08:31.647Z,82.60
2022-08-16T05:11:14.869Z,82.60
2022-08-16T05:13:44.467Z,82.60
2022-08-16T05:16:21.686Z,82.40
2022-08-16T05:18:56.871Z,82.40
2022-08-16T05:21:28.287Z,82.40
2022-08-16T05:24:03.322Z,82.40
2022-08-16T05:26:36.034Z,82.40
2022-08-16T05:29:04.415Z,82.40
2022-08-16T05:31:32.455Z,82.70
2022-08-16T05:34:04.416Z,82.80
2022-08-16T05:36:37.112Z,82.90
2022-08-16T05:39:07.739Z,83.00
2022-08-16T05:41:45.535Z,83.10
2022-08-16T05:44:23.236Z,83.10
2022-08-16T05:46:56.970Z,83.10
2022-08-16T05:49:38.789Z,83.30
2022-08-16T05:52:10.863Z,83.30
2022-08-16T05:54:47.298Z,83.50
2022-08-16T05:57:18.319Z,83.70
2022-08-16T05:59:50.638Z,83.70
2022-08-16T06:02:33.184Z,83.90
2022-08-16T06:05:00.116Z,84.20
2022-08-16T06:07:28.888Z,84.40
2022-08-16T06:10:07.313Z,84.50
2022-08-16T06:12:37.127Z,84.10
2022-08-16T06:15:10.591Z,84.10
2022-08-16T06:17:43.617Z,84.20
2022-08-16T06:20:24.240Z,84.20
2022-08-16T06:23:04.072Z,84.00
2022-08-16T06:25:53.285Z,83.90
2022-08-16T06:28:34.840Z,83.80
2022-08-16T06:31:05.633Z,83.70
2022-08-16T06:33:41.688Z,83.70
2022-08-16T06:36:14.153Z,83.70
2022-08-16T06:38:55.791Z,83.80
2022-08-16T06:41:39.756Z,83.90
2022-08-16T06:44:20.779Z,83.90
2022-08-16T06:46:51.888Z,83.70
2022-08-16T06:49:19.946Z,83.80
2022-08-16T06:51:48.989Z,83.60
2022-08-16T06:54:20.997Z,83.20
2022-08-16T06:56:47.875Z,83.00
2022-08-16T06:59:25.811Z,83.10
2022-08-16T07:01:58.198Z,83.20
2022-08-16T07:04:32.669Z,83.10
2022-08-16T07:07:05.791Z,83.20
2022-08-16T07:09:32.800Z,83.00
2022-08-16T07:12:03.704Z,82.40
2022-08-16T07:14:35.155Z,82.30
2022-08-16T07:17:08.205Z,82.10
2022-08-16T07:20:30.199Z,81.90
2022-08-16T07:22:52.364Z,81.70
2022-08-16T07:25:24.285Z,81.60
2022-08-16T07:27:52.340Z,81.30
2022-08-16T07:30:45.430Z,81.20
2022-08-16T07:33:17.185Z,81.10
2022-08-16T07:36:03.881Z,80.80
2022-08-16T07:38:34.387Z,80.90
2022-08-16T07:41:09.437Z,80.40
2022-08-16T07:43:37.138Z,79.80
2022-08-16T07:46:38.752Z,79.50
2022-08-16T07:48:55.207Z,80.10
2022-08-16T07:51:22.705Z,79.40
2022-08-16T07:54:02.488Z,79.00
2022-08-16T07:56:37.343Z,78.20
2022-08-16T07:59:05.681Z,78.00
2022-08-16T08:01:34.576Z,77.60
2022-08-16T08:04:03.736Z,77.60
2022-08-16T08:06:36.036Z,77.80
2022-08-16T08:09:13.678Z,77.40
2022-08-16T08:11:41.269Z,77.20
2022-08-16T08:14:29.683Z,76.90
2022-08-16T08:17:01.464Z,76.50
2022-08-16T08:19:30.444Z,76.40
2022-08-16T08:21:59.863Z,75.70
2022-08-16T08:24:44.045Z,75.50
2022-08-16T08:27:11.790Z,75.50
2022-08-16T08:29:40.362Z,75.40
2022-08-16T08:32:57.089Z,75.80
2022-08-16T08:35:03.839Z,74.90
2022-08-16T08:37:55.114Z,75.40
2022-08-16T08:40:26.575Z,74.70
2022-08-16T08:43:00.041Z,74.70
2022-08-16T08:45:48.415Z,74.60
2022-08-16T08:48:32.843Z,74.30
2022-08-16T08:51:11.589Z,74.10
2022-08-16T08:53:58.006Z,74.20
2022-08-16T08:56:34.734Z,73.90
2022-08-16T08:59:28.155Z,74.10
2022-08-16T09:01:57.543Z,74.30
2022-08-16T09:04:28.130Z,74.10
2022-08-16T09:06:56.277Z,74.30
2022-08-16T09:09:26.226Z,74.20
2022-08-16T09:12:05.944Z,73.70
2022-08-16T09:14:49.541Z,73.60
2022-08-16T09:17:45.338Z,73.30
2022-08-16T09:20:10.275Z,72.90
2022-08-16T09:22:40.646Z,73.00
2022-08-16T09:25:10.914Z,72.60
2022-08-16T09:27:46.722Z,72.40
2022-08-16T09:30:33.830Z,72.20
2022-08-16T09:33:02.311Z,72.00
2022-08-16T09:35:30.637Z,71.80
2022-08-16T09:38:01.107Z,71.40
2022-08-16T09:40:33.313Z,71.20
2022-08-16T09:43:57.929Z,70.70
2022-08-16T09:46:44.585Z,71.10
2022-08-16T09:48:56.510Z,70.80
2022-08-16T09:51:26.235Z,70.20
2022-08-16T09:53:57.795Z,70.20
2022-08-16T09:56:35.320Z,70.40
2022-08-16T09:59:07.802Z,70.40
2022-08-16T10:01:36.453Z,70.10
2022-08-16T10:04:05.516Z,69.60
2022-08-16T10:06:35.715Z,68.90
2022-08-16T10:09:06.833Z,68.70
2022-08-16T10:11:54.970Z,68.60
2022-08-16T10:14:24.779Z,68.40
2022-08-16T10:17:04.966Z,67.60
2022-08-16T10:19:33.167Z,67.20
2022-08-16T10:22:05.250Z,67.00
2022-08-16T10:24:33.263Z,66.70
2022-08-16T10:27:22.261Z,67.00
2022-08-16T10:30:01.401Z,67.20
2022-08-16T10:32:34.600Z,66.90
2022-08-16T10:35:03.661Z,66.90
2022-08-16T10:37:32.456Z,66.30
2022-08-16T10:40:06.553Z,66.20
2022-08-16T10:42:53.353Z,65.50
2022-08-16T10:45:20.426Z,65.20
2022-08-16T10:47:51.828Z,65.20
2022-08-16T10:50:30.258Z,65.00
2022-08-16T10:52:59.443Z,64.50
2022-08-16T10:55:44.508Z,64.00
2022-08-16T10:58:16.980Z,63.70
2022-08-16T11:00:46.199Z,63.50
2022-08-16T11:06:06.453Z,63.60
2022-08-16T11:08:40.769Z,63.70
2022-08-16T11:11:19.168Z,63.60
2022-08-16T11:14:11.016Z,63.70
2022-08-16T11:19:22.669Z,63.20
2022-08-16T11:24:45.004Z,63.00
2022-08-16T11:27:19.723Z,62.60
2022-08-16T11:29:50.061Z,62.80
2022-08-16T11:32:20.378Z,62.60
2022-08-16T11:35:13.373Z,62.80
2022-08-16T11:40:37.788Z,62.90
2022-08-16T11:43:06.405Z,62.00
2022-08-16T11:45:35.521Z,62.10
2022-08-16T11:48:05.019Z,62.10
2022-08-16T11:50:33.626Z,61.30
2022-08-16T11:53:06.066Z,61.20
2022-08-16T11:55:38.214Z,60.70
2022-08-16T11:58:08.301Z,60.50
2022-08-16T12:00:51.040Z,60.40
2022-08-16T12:03:19.229Z,59.90
2022-08-16T12:05:46.834Z,59.70
2022-08-16T12:08:19.998Z,59.50
2022-08-16T12:10:52.881Z,59.00
2022-08-16T12:13:19.645Z,59.00
2022-08-16T12:15:48.705Z,58.70
2022-08-16T12:18:20.624Z,58.60
2022-08-16T12:20:48.658Z,58.00
2022-08-16T12:23:17.421Z,58.40
2022-08-16T12:25:44.767Z,58.50
2022-08-16T12:28:12.476Z,58.40
2022-08-16T12:30:44.853Z,58.90
2022-08-16T12:33:16.274Z,59.30
2022-08-16T12:35:52.625Z,59.20
2022-08-16T12:38:40.886Z,59.20
2022-08-16T12:41:06.685Z,58.80
2022-08-16T12:43:35.487Z,58.80
2022-08-16T12:46:03.701Z,58.30
2022-08-16T12:48:52.675Z,58.80
2022-08-16T12:51:24.380Z,58.20
2022-08-16T12:53:53.553Z,58.10
2022-08-16T12:56:25.359Z,57.50
2022-08-16T12:58:53.689Z,57.40
2022-08-16T13:01:27.392Z,57.90
2022-08-16T13:04:11.804Z,57.70
2022-08-16T13:06:43.361Z,57.50
2022-08-16T13:09:20.517Z,57.50
2022-08-16T13:12:00.020Z,57.40
2022-08-16T13:14:33.565Z,57.40
2022-08-16T13:17:06.948Z,57.00
2022-08-16T13:20:05.577Z,56.40
2022-08-16T13:22:23.100Z,56.30
2022-08-16T13:24:51.956Z,56.50
2022-08-16T13:27:18.671Z,56.70
2022-08-16T13:29:50.105Z,56.60
2022-08-16T13:32:40.095Z,56.70
2022-08-16T13:35:07.879Z,56.90
2022-08-16T13:37:46.803Z,56.50
2022-08-16T13:40:19.808Z,56.50
2022-08-16T13:42:49.659Z,56.60
2022-08-16T13:45:17.709Z,56.70
2022-08-16T13:47:48.304Z,56.90
2022-08-16T13:50:31.423Z,56.70
2022-08-16T13:53:07.343Z,56.40
2022-08-16T13:55:34.712Z,56.30
2022-08-16T13:58:37.368Z,56.20
2022-08-16T14:00:52.826Z,56.20
2022-08-16T14:03:21.594Z,56.40
2022-08-16T14:05:52.609Z,56.70
2022-08-16T14:08:23.893Z,56.80
2022-08-16T14:10:53.911Z,56.50
2022-08-16T14:13:21.691Z,56.50
2022-08-16T14:15:48.779Z,56.30
2022-08-16T14:18:20.387Z,56.20
2022-08-16T14:20:48.575Z,56.10
2022-08-16T14:23:15.650Z,56.30
2022-08-16T14:25:42.582Z,56.60
2022-08-16T14:28:09.749Z,56.90
2022-08-16T14:30:37.934Z,57.00
2022-08-16T14:33:07.286Z,56.60
2022-08-16T14:35:49.252Z,56.70
2022-08-16T14:38:23.797Z,56.90
2022-08-16T14:40:54.866Z,56.80
2022-08-16T14:43:22.338Z,56.60
2022-08-16T14:45:50.404Z,56.30
2022-08-16T14:48:25.137Z,56.40
2022-08-16T14:50:54.216Z,56.50
2022-08-16T14:53:22.993Z,56.40
2022-08-16T14:55:49.730Z,56.30
2022-08-16T14:58:19.497Z,56.30
2022-08-16T15:00:50.790Z,56.40
2022-08-16T15:03:21.673Z,56.10
2022-08-16T15:05:50.380Z,56.10
2022-08-16T15:08:21.198Z,56.20
2022-08-16T15:11:03.294Z,56.20
2022-08-16T15:13:30.251Z,56.30
2022-08-16T15:16:01.923Z,56.30
2022-08-16T15:18:31.999Z,56.70
2022-08-16T15:21:04.021Z,56.60
2022-08-16T15:23:31.723Z,56.90
2022-08-16T15:26:03.687Z,56.90
2022-08-16T15:28:32.928Z,56.90
2022-08-16T15:31:06.096Z,57.30
2022-08-16T15:33:39.358Z,57.50
2022-08-16T15:36:17.907Z,57.50
2022-08-16T15:39:06.844Z,57.50
2022-08-16T15:41:43.427Z,57.40
2022-08-16T15:44:17.872Z,58.20
2022-08-16T15:46:56.532Z,58.20
2022-08-16T15:49:37.626Z,57.30
2022-08-16T15:52:18.298Z,57.20
2022-08-16T15:54:53.292Z,57.50
2022-08-16T15:57:25.747Z,57.70
2022-08-16T15:59:55.972Z,57.80
2022-08-16T16:02:30.578Z,57.40
2022-08-16T16:05:04.517Z,57.70
2022-08-16T16:07:34.104Z,57.70
2022-08-16T16:10:07.847Z,57.70
2022-08-16T16:12:51.344Z,57.90
2022-08-16T16:15:29.338Z,58.00
2022-08-16T16:17:57.453Z,57.90
2022-08-16T16:20:27.144Z,57.70
2022-08-16T16:23:01.013Z,57.60
2022-08-16T16:25:29.347Z,57.50
2022-08-16T16:27:59.910Z,58.40
2022-08-16T16:30:37.733Z,58.60
2022-08-16T16:33:21.357Z,58.20
2022-08-16T16:35:55.354Z,58.50
2022-08-16T16:38:30.369Z,58.90
2022-08-16T16:40:59.196Z,59.00
2022-08-16T16:43:31.550Z,59.00
2022-08-16T16:46:01.696Z,59.60
2022-08-16T16:48:34.472Z,60.00
2022-08-16T16:51:09.941Z,59.10
2022-08-16T16:53:41.039Z,59.70
2022-08-16T16:56:20.121Z,59.60
2022-08-16T16:58:57.587Z,59.40
2022-08-16T17:02:00.040Z,59.40
2022-08-16T17:04:32.493Z,59.70
2022-08-16T17:07:01.673Z,59.70
2022-08-16T17:09:29.440Z,60.30
2022-08-16T17:11:56.610Z,60.10
2022-08-16T17:14:33.593Z,60.10
2022-08-16T17:17:11.624Z,60.40
2022-08-16T17:19:41.472Z,60.40
2022-08-16T17:22:20.285Z,60.10
2022-08-16T17:24:50.412Z,60.10
2022-08-16T17:27:32.870Z,60.30
2022-08-16T17:30:15.071Z,60.40
2022-08-16T17:32:48.018Z,60.40
2022-08-16T17:35:20.768Z,61.10
2022-08-16T17:37:51.857Z,61.60
2022-08-16T17:40:45.792Z,61.80
2022-08-16T17:43:16.382Z,61.90
2022-08-16T17:45:43.624Z,62.20
2022-08-16T17:48:11.059Z,62.10
2022-08-16T17:50:38.313Z,62.20
2022-08-16T17:53:06.152Z,62.40
2022-08-16T17:55:36.315Z,62.70
2022-08-16T17:58:09.787Z,62.80
2022-08-16T18:00:55.811Z,62.80
2022-08-16T18:04:07.373Z,63.10
2022-08-16T18:06:15.537Z,62.90
2022-08-16T18:08:42.853Z,63.50
2022-08-16T18:11:12.101Z,64.10
2022-08-16T18:13:42.879Z,63.80
2022-08-16T18:16:10.161Z,63.80
2022-08-16T18:18:36.919Z,63.50
2022-08-16T18:21:22.861Z,63.40
2022-08-16T18:23:51.811Z,63.40
2022-08-16T18:26:18.631Z,63.80
2022-08-16T18:28:45.515Z,63.80
2022-08-16T18:31:12.315Z,63.60
2022-08-16T18:33:43.850Z,63.70
2022-08-16T18:36:20.618Z,64.00
2022-08-16T18:38:49.572Z,63.70
2022-08-16T18:41:17.529Z,63.30
2022-08-16T18:44:23.465Z,63.30
2022-08-16T18:46:31.124Z,63.70
2022-08-16T18:48:57.985Z,63.60
2022-08-16T18:51:25.769Z,63.60
2022-08-16T18:53:53.488Z,64.00
2022-08-16T18:56:20.517Z,64.40
2022-08-16T18:58:47.272Z,64.40
2022-08-16T19:01:14.152Z,64.30
2022-08-16T19:03:41.241Z,64.20
2022-08-16T19:06:13.946Z,64.30
2022-08-16T19:08:43.623Z,64.10
2022-08-16T19:11:13.964Z,64.60
2022-08-16T19:13:44.002Z,65.10
2022-08-16T19:16:11.409Z,65.10
2022-08-16T19:18:38.170Z,65.50
2022-08-16T19:21:06.522Z,66.00
2022-08-16T19:23:35.863Z,65.90
2022-08-16T19:26:11.066Z,65.50
2022-08-16T19:28:58.320Z,65.40
2022-08-16T19:31:29.794Z,65.50
2022-08-16T19:33:57.060Z,65.50
2022-08-16T19:36:31.551Z,65.60
2022-08-16T19:39:05.036Z,65.60
2022-08-16T19:41:40.607Z,65.40
2022-08-16T19:44:07.461Z,65.40
2022-08-16T19:46:35.458Z,65.50
2022-08-16T19:49:02.414Z,65.90
2022-08-16T19:51:29.455Z,66.90
2022-08-16T19:53:57.753Z,67.00
2022-08-16T19:56:27.658Z,66.90
2022-08-16T20:01:43.217Z,66.70
2022-08-16T20:04:14.723Z,66.50
2022-08-16T20:06:42.239Z,66.60
2022-08-16T20:09:09.358Z,66.60
2022-08-16T20:11:39.666Z,66.70
2022-08-16T20:14:06.966Z,66.70
2022-08-16T20:16:33.847Z,66.80
2022-08-16T20:19:00.592Z,67.00
2022-08-16T20:21:27.311Z,67.10
2022-08-16T20:24:01.322Z,67.20
2022-08-16T20:26:37.160Z,67.10
2022-08-16T20:29:03.878Z,67.00
2022-08-16T20:31:30.687Z,67.00
2022-08-16T20:33:57.434Z,67.10
2022-08-16T20:36:24.521Z,67.20
2022-08-16T20:38:51.859Z,67.10
2022-08-16T20:41:19.035Z,67.40
2022-08-16T20:43:47.446Z,67.50
2022-08-16T20:46:15.149Z,67.60
2022-08-16T20:48:54.599Z,67.70
2022-08-16T20:51:21.498Z,67.80
2022-08-16T20:53:48.395Z,67.90
2022-08-16T20:56:15.212Z,68.00
2022-08-16T20:58:42.136Z,68.20
2022-08-16T21:01:09.086Z,68.20
2022-08-16T21:03:36.599Z,68.30
2022-08-16T21:06:04.238Z,68.50
2022-08-16T21:08:52.055Z,68.60
2022-08-16T21:11:18.706Z,68.70
2022-08-16T21:13:45.499Z,69.00
2022-08-16T21:16:12.375Z,69.00
2022-08-16T21:18:39.092Z,69.00
2022-08-16T21:21:06.103Z,69.00
2022-08-16T21:23:35.845Z,69.00
2022-08-16T21:26:07.389Z,68.90
2022-08-16T21:28:41.719Z,69.20
2022-08-16T21:31:14.473Z,69.30
2022-08-16T21:33:42.467Z,69.60
2022-08-16T21:36:09.831Z,69.70
2022-08-16T21:38:36.759Z,69.90
2022-08-16T21:41:05.210Z,69.70
2022-08-16T21:43:33.352Z,69.60
2022-08-16T21:46:02.607Z,69.60
2022-08-16T21:48:33.944Z,69.40
2022-08-16T21:51:08.274Z,69.40
2022-08-16T21:53:54.164Z,69.30
2022-08-16T21:56:39.318Z,69.50
2022-08-16T21:59:10.789Z,69.60
2022-08-16T22:01:51.622Z,69.70
2022-08-16T22:04:36.989Z,69.80
2022-08-16T22:07:05.406Z,70.20
2022-08-16T22:09:32.153Z,70.70
2022-08-16T22:11:58.998Z,70.80
2022-08-16T22:14:25.702Z,70.90
2022-08-16T22:16:52.539Z,71.00
2022-08-16T22:19:38.851Z,70.80
2022-08-16T22:22:05.796Z,71.40
2022-08-16T22:24:32.736Z,71.70
2022-08-16T22:26:59.637Z,71.70
2022-08-16T22:29:26.419Z,71.50
2022-08-16T22:31:53.202Z,71.40
2022-08-16T22:34:19.905Z,71.30
2022-08-16T22:36:46.723Z,71.10
2022-08-16T22:39:16.800Z,71.10
2022-08-16T22:41:45.355Z,71.40
2022-08-16T22:44:12.979Z,71.60
2022-08-16T22:46:39.847Z,71.70
2022-08-16T22:49:07.280Z,71.60
2022-08-16T22:51:35.537Z,71.40
2022-08-16T22:54:34.335Z,71.20
2022-08-16T22:56:49.579Z,71.20
2022-08-16T22:59:16.579Z,71.20
2022-08-16T23:01:43.947Z,71.30
2022-08-16T23:04:10.743Z,71.40
2022-08-16T23:06:37.569Z,71.40
2022-08-16T23:09:04.364Z,71.70
2022-08-16T23:11:31.058Z,71.70
2022-08-16T23:13:57.757Z,71.80
2022-08-16T23:16:32.736Z,72.20
2022-08-16T23:19:03.167Z,72.40
2022-08-16T23:21:30.346Z,72.30
2022-08-16T23:23:57.107Z,72.20
2022-08-16T23:26:47.204Z,72.10
2022-08-16T23:29:15.600Z,72.00
2022-08-16T23:31:49.459Z,71.90
2022-08-16T23:34:16.155Z,72.00
2022-08-16T23:36:42.893Z,72.00
2022-08-16T23:39:09.727Z,72.10
2022-08-16T23:41:36.451Z,72.40
2022-08-16T23:44:42.393Z,72.50
2022-08-16T23:46:50.070Z,72.50
2022-08-16T23:49:57.793Z,72.60
2022-08-16T23:52:08.236Z,72.50
2022-08-16T23:54:35.909Z,73.00
2022-08-16T23:57:04.659Z,73.00
2022-08-16T23:59:36.730Z,73.00
